sensor_id;sensor_type;location;lat;lon;timestamp;pressure;altitude;pressure_sealevel;temperature
37452;BMP280;23314;51.114;6.900;2023-02-12T00:00:39;103498.97;;;9.81
37452;BMP280;23314;51.114;6.900;2023-02-12T00:03:04;103506.97;;;9.81
37452;BMP280;23314;51.114;6.900;2023-02-12T00:05:30;103498.22;;;9.81
37452;BMP280;23314;51.114;6.900;2023-02-12T00:07:55;103503.09;;;9.78
37452;BMP280;23314;51.114;6.900;2023-02-12T00:10:21;103501.19;;;9.79
37452;BMP280;23314;51.114;6.900;2023-02-12T00:12:46;103503.09;;;9.78
37452;BMP280;23314;51.114;6.900;2023-02-12T00:15:11;103503.09;;;9.78
37452;BMP280;23314;51.114;6.900;2023-02-12T00:17:36;103501.53;;;9.77
37452;BMP280;23314;51.114;6.900;2023-02-12T00:20:03;103502.28;;;9.78
37452;BMP280;23314;51.114;6.900;2023-02-12T00:22:28;103493.53;;;9.77
37452;BMP280;23314;51.114;6.900;2023-02-12T00:24:54;103492.41;;;9.78
37452;BMP280;23314;51.114;6.900;2023-02-12T00:27:20;103493.19;;;9.79
37452;BMP280;23314;51.114;6.900;2023-02-12T00:29:46;103501.19;;;9.79
37452;BMP280;23314;51.114;6.900;2023-02-12T00:32:11;103502.28;;;9.78
37452;BMP280;23314;51.114;6.900;2023-02-12T00:34:39;103499.94;;;9.76
37452;BMP280;23314;51.114;6.900;2023-02-12T00:37:04;103503.94;;;9.70
37452;BMP280;23314;51.114;6.900;2023-02-12T00:39:30;103498.94;;;9.69
37452;BMP280;23314;51.114;6.900;2023-02-12T00:41:55;103498.59;;;9.70
37452;BMP280;23314;51.114;6.900;2023-02-12T00:44:20;103499.56;;;9.66
37452;BMP280;23314;51.114;6.900;2023-02-12T00:46:46;103499.13;;;9.63
37452;BMP280;23314;51.114;6.900;2023-02-12T00:49:12;103507.91;;;9.64
37452;BMP280;23314;51.114;6.900;2023-02-12T00:51:38;103507.91;;;9.64
37452;BMP280;23314;51.114;6.900;2023-02-12T00:54:04;103500.69;;;9.65
37452;BMP280;23314;51.114;6.900;2023-02-12T00:56:29;103492.69;;;9.65
37452;BMP280;23314;51.114;6.900;2023-02-12T00:58:54;103492.69;;;9.65
37452;BMP280;23314;51.114;6.900;2023-02-12T01:01:19;103486.22;;;9.66
37452;BMP280;23314;51.114;6.900;2023-02-12T01:03:45;103495.38;;;9.65
37452;BMP280;23314;51.114;6.900;2023-02-12T01:06:10;103498.78;;;9.65
37452;BMP280;23314;51.114;6.900;2023-02-12T01:08:35;103496.13;;;9.65
37452;BMP280;23314;51.114;6.900;2023-02-12T01:11:03;103489.66;;;9.66
37452;BMP280;23314;51.114;6.900;2023-02-12T01:13:30;103497.66;;;9.66
37452;BMP280;23314;51.114;6.900;2023-02-12T01:16:23;103497.66;;;9.66
37452;BMP280;23314;51.114;6.900;2023-02-12T01:18:47;103488.47;;;9.63
37452;BMP280;23314;51.114;6.900;2023-02-12T01:21:14;103486.22;;;9.66
37452;BMP280;23314;51.114;6.900;2023-02-12T01:23:40;103490.47;;;9.67
37452;BMP280;23314;51.114;6.900;2023-02-12T01:26:06;103487.81;;;9.67
37452;BMP280;23314;51.114;6.900;2023-02-12T01:28:32;103475.22;;;9.67
37452;BMP280;23314;51.114;6.900;2023-02-12T01:30:57;103481.66;;;9.66
37452;BMP280;23314;51.114;6.900;2023-02-12T01:33:23;103485.06;;;9.54
37452;BMP280;23314;51.114;6.900;2023-02-12T01:35:48;103489.19;;;9.52
37452;BMP280;23314;51.114;6.900;2023-02-12T01:38:13;103482.28;;;9.51
37452;BMP280;23314;51.114;6.900;2023-02-12T01:40:39;103489.47;;;9.50
37452;BMP280;23314;51.114;6.900;2023-02-12T01:43:06;103482.63;;;9.49
37452;BMP280;23314;51.114;6.900;2023-02-12T01:45:51;103486.72;;;9.46
37452;BMP280;23314;51.114;6.900;2023-02-12T01:48:19;103481.81;;;9.48
37452;BMP280;23314;51.114;6.900;2023-02-12T01:50:47;103482.91;;;9.47
37452;BMP280;23314;51.114;6.900;2023-02-12T01:53:14;103481.03;;;9.48
37452;BMP280;23314;51.114;6.900;2023-02-12T01:55:46;103484.81;;;9.47
37452;BMP280;23314;51.114;6.900;2023-02-12T01:58:12;103481.72;;;9.45
37452;BMP280;23314;51.114;6.900;2023-02-12T02:00:38;103488.91;;;9.44
37452;BMP280;23314;51.114;6.900;2023-02-12T02:03:04;103487.34;;;9.43
37452;BMP280;23314;51.114;6.900;2023-02-12T02:05:34;103483.13;;;9.42
37452;BMP280;23314;51.114;6.900;2023-02-12T02:08:03;103487.69;;;9.42
37452;BMP280;23314;51.114;6.900;2023-02-12T02:10:29;103487.69;;;9.42
37452;BMP280;23314;51.114;6.900;2023-02-12T02:12:55;103478.41;;;9.39
37452;BMP280;23314;51.114;6.900;2023-02-12T02:15:41;103480.38;;;9.30
37452;BMP280;23314;51.114;6.900;2023-02-12T02:18:22;103486.53;;;9.22
37452;BMP280;23314;51.114;6.900;2023-02-12T02:23:40;103479.81;;;9.24
37452;BMP280;23314;51.114;6.900;2023-02-12T02:31:46;103480.69;;;9.28
37452;BMP280;23314;51.114;6.900;2023-02-12T02:37:18;103468.16;;;9.29
37452;BMP280;23314;51.114;6.900;2023-02-12T02:40:11;103464.06;;;9.31
37452;BMP280;23314;51.114;6.900;2023-02-12T02:42:43;103475.81;;;9.30
37452;BMP280;23314;51.114;6.900;2023-02-12T02:45:14;103477.38;;;9.31
37452;BMP280;23314;51.114;6.900;2023-02-12T02:47:48;103478.94;;;9.32
37452;BMP280;23314;51.114;6.900;2023-02-12T02:50:18;103469.09;;;9.33
37452;BMP280;23314;51.114;6.900;2023-02-12T02:52:54;103476.63;;;9.31
37452;BMP280;23314;51.114;6.900;2023-02-12T02:55:24;103467.81;;;9.30
37452;BMP280;23314;51.114;6.900;2023-02-12T02:58:03;103471.16;;;9.27
37452;BMP280;23314;51.114;6.900;2023-02-12T03:00:51;103473.81;;;9.27
37452;BMP280;23314;51.114;6.900;2023-02-12T03:03:29;103469.16;;;9.24
37452;BMP280;23314;51.114;6.900;2023-02-12T03:06:33;103466.16;;;9.26
37452;BMP280;23314;51.114;6.900;2023-02-12T03:09:04;103471.91;;;9.28
37452;BMP280;23314;51.114;6.900;2023-02-12T03:11:32;103472.69;;;9.28
37452;BMP280;23314;51.114;6.900;2023-02-12T03:16:39;103467.81;;;9.30
37452;BMP280;23314;51.114;6.900;2023-02-12T03:19:10;103467.81;;;9.30
37452;BMP280;23314;51.114;6.900;2023-02-12T03:22:00;103470.50;;;9.30
37452;BMP280;23314;51.114;6.900;2023-02-12T03:24:36;103472.69;;;9.28
37452;BMP280;23314;51.114;6.900;2023-02-12T03:27:19;103463.59;;;9.29
37452;BMP280;23314;51.114;6.900;2023-02-12T03:29:46;103460.50;;;9.27
37452;BMP280;23314;51.114;6.900;2023-02-12T03:32:22;103461.59;;;9.26
37452;BMP280;23314;51.114;6.900;2023-02-12T03:34:53;103462.25;;;9.23
37452;BMP280;23314;51.114;6.900;2023-02-12T03:37:32;103468.69;;;9.22
37452;BMP280;23314;51.114;6.900;2023-02-12T03:40:12;103464.47;;;9.21
37452;BMP280;23314;51.114;6.900;2023-02-12T03:42:54;103459.13;;;9.21
37452;BMP280;23314;51.114;6.900;2023-02-12T03:48:06;103464.91;;;9.23
37452;BMP280;23314;51.114;6.900;2023-02-12T03:51:37;103459.59;;;9.23
37452;BMP280;23314;51.114;6.900;2023-02-12T03:53:56;103455.03;;;9.24
37452;BMP280;23314;51.114;6.900;2023-02-12T03:56:25;103468.81;;;9.26
37452;BMP280;23314;51.114;6.900;2023-02-12T03:58:51;103466.91;;;9.26
37452;BMP280;23314;51.114;6.900;2023-02-12T04:01:17;103463.50;;;9.26
37452;BMP280;23314;51.114;6.900;2023-02-12T04:03:42;103465.81;;;9.27
37452;BMP280;23314;51.114;6.900;2023-02-12T04:06:27;103463.94;;;9.28
37452;BMP280;23314;51.114;6.900;2023-02-12T04:08:57;103461.25;;;9.28
37452;BMP280;23314;51.114;6.900;2023-02-12T04:11:53;103475.25;;;9.25
37452;BMP280;23314;51.114;6.900;2023-02-12T04:14:33;103478.25;;;9.23
37452;BMP280;23314;51.114;6.900;2023-02-12T04:17:21;103476.69;;;9.22
37452;BMP280;23314;51.114;6.900;2023-02-12T04:20:02;103488.09;;;9.23
37452;BMP280;23314;51.114;6.900;2023-02-12T04:22:40;103487.81;;;9.24
37452;BMP280;23314;51.114;6.900;2023-02-12T04:28:40;103488.91;;;9.23
37452;BMP280;23314;51.114;6.900;2023-02-12T04:31:19;103493.91;;;9.25
37452;BMP280;23314;51.114;6.900;2023-02-12T04:33:55;103496.56;;;9.25
37452;BMP280;23314;51.114;6.900;2023-02-12T04:36:27;103489.38;;;9.25
37452;BMP280;23314;51.114;6.900;2023-02-12T04:39:00;103496.22;;;9.26
37452;BMP280;23314;51.114;6.900;2023-02-12T04:41:29;103491.69;;;9.27
37452;BMP280;23314;51.114;6.900;2023-02-12T04:43:54;103498.47;;;9.24
37452;BMP280;23314;51.114;6.900;2023-02-12T04:46:20;103496.41;;;9.21
37452;BMP280;23314;51.114;6.900;2023-02-12T04:48:56;103493.28;;;9.19
37452;BMP280;23314;51.114;6.900;2023-02-12T04:51:22;103501.28;;;9.19
37452;BMP280;23314;51.114;6.900;2023-02-12T04:53:48;103500.94;;;9.21
37452;BMP280;23314;51.114;6.900;2023-02-12T04:56:14;103501.75;;;9.21
37452;BMP280;23314;51.114;6.900;2023-02-12T04:58:39;103492.66;;;9.22
37452;BMP280;23314;51.114;6.900;2023-02-12T05:01:05;103501.88;;;9.25
37452;BMP280;23314;51.114;6.900;2023-02-12T05:03:31;103493.56;;;9.26
37452;BMP280;23314;51.114;6.900;2023-02-12T05:06:04;103493.22;;;9.28
37452;BMP280;23314;51.114;6.900;2023-02-12T05:08:30;103498.56;;;9.28
37452;BMP280;23314;51.114;6.900;2023-02-12T05:10:55;103499.03;;;9.30
37452;BMP280;23314;51.114;6.900;2023-02-12T05:13:20;103500.91;;;9.29
37452;BMP280;23314;51.114;6.900;2023-02-12T05:15:46;103502.78;;;9.29
37452;BMP280;23314;51.114;6.900;2023-02-12T05:18:11;103501.88;;;9.25
37452;BMP280;23314;51.114;6.900;2023-02-12T05:20:36;103503.63;;;9.21
37452;BMP280;23314;51.114;6.900;2023-02-12T05:23:02;103508.38;;;9.15
37452;BMP280;23314;51.114;6.900;2023-02-12T05:25:27;103503.19;;;9.10
37452;BMP280;23314;51.114;6.900;2023-02-12T05:27:52;103506.84;;;9.05
37452;BMP280;23314;51.114;6.900;2023-02-12T05:30:20;103502.94;;;9.03
37452;BMP280;23314;51.114;6.900;2023-02-12T05:32:46;103508.91;;;8.99
37452;BMP280;23314;51.114;6.900;2023-02-12T05:35:11;103508.00;;;8.95
37452;BMP280;23314;51.114;6.900;2023-02-12T05:37:36;103508.63;;;8.92
37452;BMP280;23314;51.114;6.900;2023-02-12T05:40:03;103508.91;;;8.91
37452;BMP280;23314;51.114;6.900;2023-02-12T05:42:29;103507.38;;;8.90
37452;BMP280;23314;51.114;6.900;2023-02-12T05:44:54;103510.81;;;8.90
37452;BMP280;23314;51.114;6.900;2023-02-12T05:47:20;103512.28;;;8.88
37452;BMP280;23314;51.114;6.900;2023-02-12T05:49:45;103524.78;;;8.87
37452;BMP280;23314;51.114;6.900;2023-02-12T05:52:10;103524.78;;;8.87
37452;BMP280;23314;51.114;6.900;2023-02-12T05:54:35;103525.59;;;8.88
37452;BMP280;23314;51.114;6.900;2023-02-12T05:57:01;103520.69;;;8.90
37452;BMP280;23314;51.114;6.900;2023-02-12T05:59:26;103530.09;;;8.87
37452;BMP280;23314;51.114;6.900;2023-02-12T06:01:51;103526.31;;;8.88
37452;BMP280;23314;51.114;6.900;2023-02-12T06:04:22;103528.69;;;8.90
37452;BMP280;23314;51.114;6.900;2023-02-12T06:06:49;103524.47;;;8.89
37452;BMP280;23314;51.114;6.900;2023-02-12T06:09:15;103522.25;;;8.91
37452;BMP280;23314;51.114;6.900;2023-02-12T06:11:41;103529.47;;;8.90
37452;BMP280;23314;51.114;6.900;2023-02-12T06:14:11;103524.47;;;8.89
37452;BMP280;23314;51.114;6.900;2023-02-12T06:16:37;103529.00;;;8.88
37452;BMP280;23314;51.114;6.900;2023-02-12T06:19:04;103519.78;;;8.86
37452;BMP280;23314;51.114;6.900;2023-02-12T06:21:30;103525.13;;;8.86
37452;BMP280;23314;51.114;6.900;2023-02-12T06:23:55;103524.03;;;8.87
37452;BMP280;23314;51.114;6.900;2023-02-12T06:26:21;103519.78;;;8.86
37452;BMP280;23314;51.114;6.900;2023-02-12T06:28:47;103519.78;;;8.86
37452;BMP280;23314;51.114;6.900;2023-02-12T06:31:28;103522.44;;;8.86
37452;BMP280;23314;51.114;6.900;2023-02-12T06:33:59;103523.22;;;8.86
37452;BMP280;23314;51.114;6.900;2023-02-12T06:36:25;103522.44;;;8.86
37452;BMP280;23314;51.114;6.900;2023-02-12T06:38:50;103525.13;;;8.86
37452;BMP280;23314;51.114;6.900;2023-02-12T06:41:16;103526.69;;;8.87
37452;BMP280;23314;51.114;6.900;2023-02-12T06:43:42;103531.34;;;8.90
37452;BMP280;23314;51.114;6.900;2023-02-12T06:46:07;103527.88;;;8.89
37452;BMP280;23314;51.114;6.900;2023-02-12T06:48:33;103526.03;;;8.90
37452;BMP280;23314;51.114;6.900;2023-02-12T06:51:14;103529.94;;;8.92
37452;BMP280;23314;51.114;6.900;2023-02-12T06:53:39;103536.50;;;8.95
37452;BMP280;23314;51.114;6.900;2023-02-12T06:56:07;103538.84;;;8.96
37452;BMP280;23314;51.114;6.900;2023-02-12T06:58:35;103546.53;;;8.98
37452;BMP280;23314;51.114;6.900;2023-02-12T07:01:12;103547.28;;;8.98
37452;BMP280;23314;51.114;6.900;2023-02-12T07:03:59;103549.00;;;9.03
37452;BMP280;23314;51.114;6.900;2023-02-12T07:06:27;103551.03;;;9.06
37452;BMP280;23314;51.114;6.900;2023-02-12T07:08:54;103557.28;;;9.10
37452;BMP280;23314;51.114;6.900;2023-02-12T07:11:23;103555.53;;;9.14
37452;BMP280;23314;51.114;6.900;2023-02-12T07:13:49;103556.44;;;9.19
37452;BMP280;23314;51.114;6.900;2023-02-12T07:16:15;103560.50;;;9.25
37452;BMP280;23314;51.114;6.900;2023-02-12T07:18:42;103561.09;;;9.30
37452;BMP280;23314;51.114;6.900;2023-02-12T07:21:09;103556.38;;;9.36
37452;BMP280;23314;51.114;6.900;2023-02-12T07:23:35;103561.03;;;9.39
37452;BMP280;23314;51.114;6.900;2023-02-12T07:26:05;103558.19;;;9.44
37452;BMP280;23314;51.114;6.900;2023-02-12T07:28:31;103555.66;;;9.48
37452;BMP280;23314;51.114;6.900;2023-02-12T07:33:36;103565.03;;;9.54
37452;BMP280;23314;51.114;6.900;2023-02-12T07:36:03;103569.28;;;9.55
37452;BMP280;23314;51.114;6.900;2023-02-12T07:38:29;103563.28;;;9.58
37452;BMP280;23314;51.114;6.900;2023-02-12T07:40:55;103571.75;;;9.60
37452;BMP280;23314;51.114;6.900;2023-02-12T07:43:23;103568.13;;;9.65
37452;BMP280;23314;51.114;6.900;2023-02-12T07:45:48;103570.56;;;9.70
37452;BMP280;23314;51.114;6.900;2023-02-12T07:48:14;103562.38;;;9.75
37452;BMP280;23314;51.114;6.900;2023-02-12T07:50:39;103568.66;;;9.79
37452;BMP280;23314;51.114;6.900;2023-02-12T07:53:05;103565.66;;;9.81
37452;BMP280;23314;51.114;6.900;2023-02-12T07:55:30;103568.56;;;9.88
37452;BMP280;23314;51.114;6.900;2023-02-12T07:57:56;103570.69;;;9.95
37452;BMP280;23314;51.114;6.900;2023-02-12T08:00:21;103579.72;;;10.03
37452;BMP280;23314;51.114;6.900;2023-02-12T08:02:51;103588.38;;;10.08
37452;BMP280;23314;51.114;6.900;2023-02-12T08:05:17;103584.69;;;10.13
37452;BMP280;23314;51.114;6.900;2023-02-12T08:07:42;103587.19;;;10.18
37452;BMP280;23314;51.114;6.900;2023-02-12T08:10:08;103586.19;;;10.23
37452;BMP280;23314;51.114;6.900;2023-02-12T08:12:33;103586.75;;;10.28
37452;BMP280;23314;51.114;6.900;2023-02-12T08:14:59;103596.13;;;10.35
37452;BMP280;23314;51.114;6.900;2023-02-12T08:17:25;103600.16;;;10.41
37452;BMP280;23314;51.114;6.900;2023-02-12T08:19:50;103596.03;;;10.43
37452;BMP280;23314;51.114;6.900;2023-02-12T08:22:16;103603.84;;;10.49
37452;BMP280;23314;51.114;6.900;2023-02-12T08:24:41;103602.53;;;10.55
37452;BMP280;23314;51.114;6.900;2023-02-12T08:27:07;103599.50;;;10.56
37452;BMP280;23314;51.114;6.900;2023-02-12T08:29:32;103602.75;;;10.62
37452;BMP280;23314;51.114;6.900;2023-02-12T08:32:00;103605.44;;;10.62
37452;BMP280;23314;51.114;6.900;2023-02-12T08:34:31;103604.53;;;10.58
37452;BMP280;23314;51.114;6.900;2023-02-12T08:36:57;103610.09;;;10.53
37452;BMP280;23314;51.114;6.900;2023-02-12T08:39:24;103609.31;;;10.52
37452;BMP280;23314;51.114;6.900;2023-02-12T08:41:50;103612.75;;;10.53
37452;BMP280;23314;51.114;6.900;2023-02-12T08:44:16;103616.97;;;10.54
37452;BMP280;23314;51.114;6.900;2023-02-12T08:46:44;103610.53;;;10.55
37452;BMP280;23314;51.114;6.900;2023-02-12T08:49:13;103616.00;;;10.58
37452;BMP280;23314;51.114;6.900;2023-02-12T08:51:42;103609.88;;;10.58
37452;BMP280;23314;51.114;6.900;2023-02-12T08:54:11;103608.09;;;10.62
37452;BMP280;23314;51.114;6.900;2023-02-12T08:56:37;103612.22;;;10.72
37452;BMP280;23314;51.114;6.900;2023-02-12T08:59:04;103606.38;;;10.79
37452;BMP280;23314;51.114;6.900;2023-02-12T09:01:31;103608.56;;;10.89
37452;BMP280;23314;51.114;6.900;2023-02-12T09:03:57;103601.25;;;10.98
37452;BMP280;23314;51.114;6.900;2023-02-12T09:06:24;103611.03;;;11.06
37452;BMP280;23314;51.114;6.900;2023-02-12T09:08:50;103607.03;;;11.13
37452;BMP280;23314;51.114;6.900;2023-02-12T09:11:21;103622.53;;;11.19
37452;BMP280;23314;51.114;6.900;2023-02-12T09:13:48;103612.84;;;11.27
37452;BMP280;23314;51.114;6.900;2023-02-12T09:16:14;103613.72;;;11.31
37452;BMP280;23314;51.114;6.900;2023-02-12T09:18:40;103607.47;;;11.39
37452;BMP280;23314;51.114;6.900;2023-02-12T09:21:11;103616.94;;;11.49
37452;BMP280;23314;51.114;6.900;2023-02-12T09:23:38;103614.03;;;11.54
37452;BMP280;23314;51.114;6.900;2023-02-12T09:26:05;103616.13;;;11.61
37452;BMP280;23314;51.114;6.900;2023-02-12T09:28:30;103616.34;;;11.68
37452;BMP280;23314;51.114;6.900;2023-02-12T09:30:56;103615.09;;;11.78
37452;BMP280;23314;51.114;6.900;2023-02-12T09:33:22;103619.09;;;11.84
37452;BMP280;23314;51.114;6.900;2023-02-12T09:35:48;103622.66;;;11.88
37452;BMP280;23314;51.114;6.900;2023-02-12T09:38:14;103623.84;;;11.91
37452;BMP280;23314;51.114;6.900;2023-02-12T09:40:48;103627.75;;;11.94
37452;BMP280;23314;51.114;6.900;2023-02-12T09:45:54;103626.06;;;12.01
37452;BMP280;23314;51.114;6.900;2023-02-12T09:48:42;103621.25;;;12.07
37452;BMP280;23314;51.114;6.900;2023-02-12T09:51:10;103622.22;;;12.15
37452;BMP280;23314;51.114;6.900;2023-02-12T09:53:39;103629.66;;;12.21
37452;BMP280;23314;51.114;6.900;2023-02-12T09:56:18;103626.38;;;12.28
37452;BMP280;23314;51.114;6.900;2023-02-12T09:58:52;103621.16;;;12.32
37452;BMP280;23314;51.114;6.900;2023-02-12T10:01:20;103623.56;;;12.37
37452;BMP280;23314;51.114;6.900;2023-02-12T10:03:48;103630.47;;;12.38
37452;BMP280;23314;51.114;6.900;2023-02-12T10:06:24;103635.84;;;12.38
37452;BMP280;23314;51.114;6.900;2023-02-12T10:09:06;103640.59;;;12.45
37452;BMP280;23314;51.114;6.900;2023-02-12T10:11:53;103634.19;;;12.49
37452;BMP280;23314;51.114;6.900;2023-02-12T10:17:48;103638.47;;;12.82
37452;BMP280;23314;51.114;6.900;2023-02-12T10:23:26;103634.34;;;13.20
37452;BMP280;23314;51.114;6.900;2023-02-12T10:25:56;103626.56;;;13.31
37452;BMP280;23314;51.114;6.900;2023-02-12T10:28:35;103634.53;;;13.47
37452;BMP280;23314;51.114;6.900;2023-02-12T10:31:11;103622.53;;;13.61
37452;BMP280;23314;51.114;6.900;2023-02-12T10:33:45;103624.72;;;13.75
37452;BMP280;23314;51.114;6.900;2023-02-12T10:36:18;103623.81;;;13.86
37452;BMP280;23314;51.114;6.900;2023-02-12T10:38:51;103622.88;;;13.98
37452;BMP280;23314;51.114;6.900;2023-02-12T10:41:18;103623.84;;;14.10
37452;BMP280;23314;51.114;6.900;2023-02-12T10:43:43;103627.03;;;14.15
37452;BMP280;23314;51.114;6.900;2023-02-12T10:46:13;103622.78;;;14.14
37452;BMP280;23314;51.114;6.900;2023-02-12T10:48:41;103613.34;;;14.24
37452;BMP280;23314;51.114;6.900;2023-02-12T10:53:39;103611.44;;;14.48
37452;BMP280;23314;51.114;6.900;2023-02-12T10:58:41;103616.63;;;14.60
37452;BMP280;23314;51.114;6.900;2023-02-12T11:01:16;103612.31;;;14.56
37452;BMP280;23314;51.114;6.900;2023-02-12T11:03:41;103613.88;;;14.57
37452;BMP280;23314;51.114;6.900;2023-02-12T11:06:16;103611.88;;;14.50
37452;BMP280;23314;51.114;6.900;2023-02-12T11:08:42;103608.13;;;14.31
37452;BMP280;23314;51.114;6.900;2023-02-12T11:11:13;103605.13;;;14.36
37452;BMP280;23314;51.114;6.900;2023-02-12T11:13:43;103602.91;;;14.42
37452;BMP280;23314;51.114;6.900;2023-02-12T11:16:10;103610.94;;;14.39
37452;BMP280;23314;51.114;6.900;2023-02-12T11:18:36;103602.97;;;14.23
37452;BMP280;23314;51.114;6.900;2023-02-12T11:21:05;103598.75;;;14.22
37452;BMP280;23314;51.114;6.900;2023-02-12T11:23:36;103603.47;;;14.28
37452;BMP280;23314;51.114;6.900;2023-02-12T11:29:15;103590.31;;;14.23
37452;BMP280;23314;51.114;6.900;2023-02-12T11:31:58;103588.06;;;14.25
37452;BMP280;23314;51.114;6.900;2023-02-12T11:34:23;103588.34;;;14.20
37452;BMP280;23314;51.114;6.900;2023-02-12T11:36:51;103591.47;;;14.22
37452;BMP280;23314;51.114;6.900;2023-02-12T11:39:23;103589.78;;;14.37
37452;BMP280;23314;51.114;6.900;2023-02-12T11:41:55;103577.88;;;14.34
37452;BMP280;23314;51.114;6.900;2023-02-12T11:44:27;103576.44;;;14.41
37452;BMP280;23314;51.114;6.900;2023-02-12T11:47:06;103573.91;;;14.51
37452;BMP280;23314;51.114;6.900;2023-02-12T11:49:37;103573.69;;;14.64
37452;BMP280;23314;51.114;6.900;2023-02-12T11:52:03;103575.34;;;14.72
37452;BMP280;23314;51.114;6.900;2023-02-12T11:54:38;103578.13;;;14.79
37452;BMP280;23314;51.114;6.900;2023-02-12T11:57:04;103563.81;;;14.72
37452;BMP280;23314;51.114;6.900;2023-02-12T11:59:34;103569.56;;;14.70
37452;BMP280;23314;51.114;6.900;2023-02-12T12:02:07;103562.28;;;14.70
37452;BMP280;23314;51.114;6.900;2023-02-12T12:04:37;103563.50;;;14.77
37452;BMP280;23314;51.114;6.900;2023-02-12T12:07:10;103563.22;;;14.82
37452;BMP280;23314;51.114;6.900;2023-02-12T12:09:52;103561.97;;;14.76
37452;BMP280;23314;51.114;6.900;2023-02-12T12:12:24;103557.69;;;14.71
37452;BMP280;23314;51.114;6.900;2023-02-12T12:15:18;103562.03;;;14.52
37452;BMP280;23314;51.114;6.900;2023-02-12T12:18:20;103554.16;;;14.40
37452;BMP280;23314;51.114;6.900;2023-02-12T12:21:49;103555.88;;;14.29
37452;BMP280;23314;51.114;6.900;2023-02-12T12:24:25;103547.59;;;14.14
37452;BMP280;23314;51.114;6.900;2023-02-12T12:26:59;103542.28;;;14.18
37452;BMP280;23314;51.114;6.900;2023-02-12T12:29:50;103540.44;;;14.22
37452;BMP280;23314;51.114;6.900;2023-02-12T12:32:18;103533.22;;;14.26
37452;BMP280;23314;51.114;6.900;2023-02-12T12:34:46;103530.88;;;14.25
37452;BMP280;23314;51.114;6.900;2023-02-12T12:40:14;103531.47;;;14.38
37452;BMP280;23314;51.114;6.900;2023-02-12T12:51:03;103516.16;;;14.68
37452;BMP280;23314;51.114;6.900;2023-02-12T13:07:59;103492.47;;;14.47
37452;BMP280;23314;51.114;6.900;2023-02-12T13:10:46;103477.50;;;14.46
37452;BMP280;23314;51.114;6.900;2023-02-12T13:15:52;103481.34;;;14.49
37452;BMP280;23314;51.114;6.900;2023-02-12T13:23:54;103481.03;;;14.54
37452;BMP280;23314;51.114;6.900;2023-02-12T13:29:17;103471.44;;;14.53
37452;BMP280;23314;51.114;6.900;2023-02-12T13:31:48;103469.16;;;14.55
37452;BMP280;23314;51.114;6.900;2023-02-12T13:34:15;103476.97;;;14.64
37452;BMP280;23314;51.114;6.900;2023-02-12T13:36:42;103470.47;;;14.68
37452;BMP280;23314;51.114;6.900;2023-02-12T13:39:34;103468.19;;;14.70
37452;BMP280;23314;51.114;6.900;2023-02-12T13:44:54;103469.84;;;14.79
37452;BMP280;23314;51.114;6.900;2023-02-12T13:47:59;103459.97;;;14.60
37452;BMP280;23314;51.114;6.900;2023-02-12T13:53:58;103452.78;;;14.37
37452;BMP280;23314;51.114;6.900;2023-02-12T13:56:28;103455.56;;;14.41
37452;BMP280;23314;51.114;6.900;2023-02-12T13:58:58;103451.34;;;14.43
37452;BMP280;23314;51.114;6.900;2023-02-12T14:09:21;103451.91;;;14.29
37452;BMP280;23314;51.114;6.900;2023-02-12T14:11:50;103452.59;;;14.23
37452;BMP280;23314;51.114;6.900;2023-02-12T14:14:26;103450.19;;;14.17
37452;BMP280;23314;51.114;6.900;2023-02-12T14:16:53;103439.78;;;14.12
37452;BMP280;23314;51.114;6.900;2023-02-12T14:24:54;103446.34;;;13.92
37452;BMP280;23314;51.114;6.900;2023-02-12T14:27:42;103450.88;;;13.84
37452;BMP280;23314;51.114;6.900;2023-02-12T14:38:07;103451.31;;;13.66
37452;BMP280;23314;51.114;6.900;2023-02-12T14:40:51;103449.13;;;13.72
37452;BMP280;23314;51.114;6.900;2023-02-12T14:43:34;103448.41;;;13.75
37452;BMP280;23314;51.114;6.900;2023-02-12T14:48:53;103453.41;;;13.77
37452;BMP280;23314;51.114;6.900;2023-02-12T14:51:37;103459.16;;;13.75
37452;BMP280;23314;51.114;6.900;2023-02-12T14:54:12;103449.13;;;13.72
37452;BMP280;23314;51.114;6.900;2023-02-12T14:56:45;103444.91;;;13.71
37452;BMP280;23314;51.114;6.900;2023-02-12T14:59:16;103445.25;;;13.69
37452;BMP280;23314;51.114;6.900;2023-02-12T15:01:42;103441.59;;;13.58
37452;BMP280;23314;51.114;6.900;2023-02-12T15:04:17;103449.44;;;13.47
37452;BMP280;23314;51.114;6.900;2023-02-12T15:06:51;103451.69;;;13.45
37452;BMP280;23314;51.114;6.900;2023-02-12T15:09:27;103441.78;;;13.46
37452;BMP280;23314;51.114;6.900;2023-02-12T15:12:06;103445.50;;;13.41
37452;BMP280;23314;51.114;6.900;2023-02-12T15:14:39;103443.56;;;13.38
37452;BMP280;23314;51.114;6.900;2023-02-12T15:17:27;103436.63;;;13.37
37452;BMP280;23314;51.114;6.900;2023-02-12T15:19:58;103437.41;;;13.37
37452;BMP280;23314;51.114;6.900;2023-02-12T15:22:32;103433.19;;;13.36
37452;BMP280;23314;51.114;6.900;2023-02-12T15:27:46;103426.47;;;13.27
37452;BMP280;23314;51.114;6.900;2023-02-12T15:30:23;103430.28;;;13.26
37452;BMP280;23314;51.114;6.900;2023-02-12T15:32:50;103427.97;;;13.24
37452;BMP280;23314;51.114;6.900;2023-02-12T15:35:25;103432.13;;;13.21
37452;BMP280;23314;51.114;6.900;2023-02-12T15:37:52;103428.25;;;13.19
37452;BMP280;23314;51.114;6.900;2023-02-12T15:40:18;103423.19;;;13.14
37452;BMP280;23314;51.114;6.900;2023-02-12T15:42:56;103420.81;;;13.12
37452;BMP280;23314;51.114;6.900;2023-02-12T15:45:24;103418.47;;;13.07
37452;BMP280;23314;51.114;6.900;2023-02-12T15:50:33;103414.06;;;12.99
37452;BMP280;23314;51.114;6.900;2023-02-12T15:52:59;103414.78;;;12.96
37452;BMP280;23314;51.114;6.900;2023-02-12T15:55:26;103418.59;;;12.95
37452;BMP280;23314;51.114;6.900;2023-02-12T15:57:58;103418.88;;;12.90
37452;BMP280;23314;51.114;6.900;2023-02-12T16:00:31;103416.56;;;12.88
37452;BMP280;23314;51.114;6.900;2023-02-12T16:02:59;103416.56;;;12.88
37452;BMP280;23314;51.114;6.900;2023-02-12T16:05:24;103419.56;;;12.86
37452;BMP280;23314;51.114;6.900;2023-02-12T16:07:50;103407.66;;;12.84
37452;BMP280;23314;51.114;6.900;2023-02-12T16:10:18;103407.25;;;12.82
37452;BMP280;23314;51.114;6.900;2023-02-12T16:12:44;103411.72;;;12.78
37452;BMP280;23314;51.114;6.900;2023-02-12T16:15:24;103403.22;;;12.72